Terminal Aerodrome Forecast
Issued by NWS Jackson, MS

Home | Current Version | Previous Version | Text Only | Print | Product List | Glossary On
Versions: 1 2 3 4 5 6 7 8 9 10 11 12
000
FTUS44 KJAN 192300 RRA
TAFGLH
TAF
KGLH 192344Z 2000/2024 04009KT P6SM -RA SCT015 OVC070
     FM200400 02007KT 4SM BR VCSH SCT006 OVC015
     FM201200 03004KT P6SM OVC015
     FM201700 03006KT P6SM SCT020 OVC040=

USA.gov is the U.S. government's official web portal to all federal, state and local government web resources and services.